Time;durP1;ratioP1;P1;durP2;ratioP2;P2;SDS_P1;SDS_P2;PMS_P1;PMS_P2;Temp;Humidity;BMP_temperature;BMP_pressure;BME280_temperature;BME280_humidity;BME280_pressure;Samples;Min_cycle;Max_cycle;Signal;HPM_P1;HPM_P2
2022/10/19 00:00:17;;;;;;;8.35;5.05;;;;;;;3.42;100.00;93735.28;5071845;28;20060;-77
2022/10/19 00:02:44;;;;;;;7.45;4.55;;;;;;;3.44;99.65;93730.06;5071880;28;20500;-77
2022/10/19 00:05:11;;;;;;;8.00;4.18;;;;;;;3.48;100.00;93728.81;5071855;28;20109;-77
2022/10/19 00:07:38;;;;;;;7.40;4.72;;;;;;;3.50;99.36;93728.63;5071854;28;20045;-77
2022/10/19 00:10:05;;;;;;;7.47;4.03;;;;;;;3.45;98.78;93729.09;5071733;28;20053;-77
2022/10/19 00:12:34;;;;;;;6.13;3.97;;;;;;;3.45;98.47;93729.09;5071874;28;20376;-77
2022/10/19 00:15:00;;;;;;;10.35;4.40;;;;;;;3.11;98.88;93689.28;5071617;28;20048;-77
2022/10/19 00:17:27;;;;;;;7.75;4.10;;;;;;;3.36;98.38;93724.94;5071813;28;20447;-77
2022/10/19 00:19:54;;;;;;;6.93;4.05;;;;;;;3.26;98.47;93725.84;5071820;28;20401;-77
2022/10/19 00:22:21;;;;;;;7.35;3.97;;;;;;;3.25;97.77;93721.72;5071258;28;20818;-77
2022/10/19 00:24:48;;;;;;;7.20;4.28;;;;;;;3.17;98.12;93721.69;5055758;28;20049;-77
2022/10/19 00:27:14;;;;;;;6.53;4.25;;;;;;;3.04;98.58;93701.78;5051352;28;20044;-76
2022/10/19 00:29:42;;;;;;;9.15;5.25;;;;;;;3.05;98.42;93705.91;5050749;28;20517;-76
2022/10/19 00:32:09;;;;;;;8.50;4.28;;;;;;;2.80;98.15;93672.78;5054239;28;20111;-76
2022/10/19 00:34:36;;;;;;;8.63;5.28;;;;;;;3.01;98.29;93710.47;5068015;28;20496;-76
2022/10/19 00:37:03;;;;;;;7.05;4.22;;;;;;;2.97;98.46;93708.41;5071769;28;20045;-76
2022/10/19 00:39:29;;;;;;;8.52;4.40;;;;;;;2.94;99.01;93706.97;5072018;28;20036;-77
2022/10/19 00:41:56;;;;;;;8.32;4.32;;;;;;;2.92;99.15;93707.09;5072086;28;20170;-77
2022/10/19 00:45:00;;;;;;;8.13;5.10;;;;;;;2.90;99.40;93685.38;5064410;28;20383;-77
2022/10/19 00:47:28;;;;;;;7.82;5.28;;;;;;;2.83;100.00;93692.81;5058285;28;20091;-77
2022/10/19 00:49:55;;;;;;;10.88;5.53;;;;;;;2.83;100.00;93681.84;5051746;28;20539;-77
2022/10/19 00:52:24;;;;;;;9.80;5.35;;;;;;;2.76;100.00;93686.72;5051342;28;20050;-77
2022/10/19 00:54:53;;;;;;;10.00;5.28;;;;;;;2.71;100.00;93679.56;5051445;28;20099;-77
2022/10/19 00:57:21;;;;;;;9.18;5.72;;;;;;;2.70;100.00;93677.16;5058184;28;20090;-77
2022/10/19 00:59:49;;;;;;;8.45;5.43;;;;;;;2.69;100.00;93676.38;5071663;28;20082;-77
2022/10/19 01:02:17;;;;;;;9.30;5.90;;;;;;;2.70;100.00;93679.69;5071842;28;20098;-77
2022/10/19 01:04:47;;;;;;;9.90;5.80;;;;;;;2.68;100.00;93662.09;5071114;28;20492;-77
2022/10/19 01:07:14;;;;;;;8.77;6.03;;;;;;;2.71;100.00;93661.00;5071717;28;20066;-77
2022/10/19 01:09:41;;;;;;;11.05;6.40;;;;;;;2.71;100.00;93659.25;5071619;28;20052;-77
2022/10/19 01:12:18;;;;;;;11.57;6.97;;;;;;;2.66;100.00;93653.84;5071750;28;20105;-77
2022/10/19 01:15:01;;;;;;;11.93;6.95;;;;;;;2.70;100.00;93654.34;5071657;28;20052;-77
2022/10/19 01:17:39;;;;;;;12.63;7.05;;;;;;;2.75;100.00;93650.41;5071156;28;20056;-77
2022/10/19 01:20:32;;;;;;;13.90;6.07;;;;;;;2.74;100.00;93648.03;5071214;28;20070;-77
2022/10/19 01:23:22;;;;;;;8.40;5.35;;;;;;;2.59;100.00;93635.09;5057529;28;20052;-76
2022/10/19 01:25:56;;;;;;;9.20;5.30;;;;;;;2.64;100.00;93638.78;5042238;28;20052;-79
2022/10/19 01:28:39;;;;;;;8.43;5.22;;;;;;;2.55;100.00;93624.47;5060376;28;20090;-78
2022/10/19 01:31:17;;;;;;;8.52;5.60;;;;;;;2.55;98.97;93637.16;5069665;28;20386;-77
2022/10/19 01:33:50;;;;;;;9.32;6.00;;;;;;;2.52;100.00;93630.63;5069946;28;20554;-77
2022/10/19 01:36:23;;;;;;;9.05;5.57;;;;;;;2.43;100.00;93616.31;5062928;28;20484;-78
2022/10/19 01:38:57;;;;;;;10.25;5.43;;;;;;;2.48;100.00;93643.75;5057075;28;20148;-78
2022/10/19 01:41:30;;;;;;;7.88;5.40;;;;;;;2.39;100.00;93638.63;5068669;28;20174;-77
2022/10/19 01:44:01;;;;;;;10.13;5.57;;;;;;;2.34;100.00;93635.75;5070777;28;20044;-78
2022/10/19 01:46:36;;;;;;;12.05;5.40;;;;;;;2.31;100.00;93630.97;5070207;28;20048;-78
2022/10/19 01:49:09;;;;;;;12.32;5.78;;;;;;;2.32;100.00;93621.63;5070002;28;20097;-78
2022/10/19 01:51:41;;;;;;;11.63;5.25;;;;;;;2.36;100.00;93622.94;5070632;28;20044;-77
2022/10/19 01:54:13;;;;;;;9.07;4.95;;;;;;;2.45;100.00;93618.69;5070100;28;20045;-78
2022/10/19 01:56:42;;;;;;;11.10;5.30;;;;;;;2.46;100.00;93615.22;5050494;28;20051;-78
2022/10/19 01:59:11;;;;;;;7.75;4.97;;;;;;;2.47;100.00;93610.00;5050410;28;20122;-79
2022/10/19 02:01:44;;;;;;;7.97;4.63;;;;;;;2.48;100.00;93616.66;5067764;28;20131;-78
2022/10/19 02:04:13;;;;;;;9.15;4.85;;;;;;;2.42;100.00;93606.31;5070041;28;20048;-78
2022/10/19 02:06:41;;;;;;;7.63;4.68;;;;;;;2.43;100.00;93611.25;5069904;28;20048;-78
2022/10/19 02:09:07;;;;;;;7.20;4.13;;;;;;;2.37;100.00;93607.53;5069943;28;20090;-79
2022/10/19 02:11:37;;;;;;;10.20;4.90;;;;;;;2.34;100.00;93618.00;5069985;28;20089;-79
2022/10/19 02:14:09;;;;;;;9.20;4.80;;;;;;;2.26;100.00;93593.38;5070010;28;20311;-79
2022/10/19 02:16:40;;;;;;;8.90;4.90;;;;;;;2.21;100.00;93608.25;5070391;28;20044;-79
2022/10/19 02:19:11;;;;;;;8.55;4.28;;;;;;;2.22;100.00;93611.59;5069701;28;20541;-79
2022/10/19 02:21:37;;;;;;;13.02;5.15;;;;;;;2.12;100.00;93602.31;5069767;28;20041;-79
2022/10/19 02:24:05;;;;;;;8.57;4.90;;;;;;;2.10;100.00;93598.34;5069287;28;20501;-79
2022/10/19 02:26:32;;;;;;;8.80;4.72;;;;;;;2.09;100.00;93602.59;5069740;28;20048;-79
2022/10/19 02:28:59;;;;;;;8.02;4.53;;;;;;;2.11;100.00;93602.47;5069499;28;20044;-79
2022/10/19 02:31:26;;;;;;;8.35;4.93;;;;;;;2.10;100.00;93605.94;5069694;28;20114;-79
2022/10/19 02:33:53;;;;;;;8.85;3.97;;;;;;;2.08;100.00;93607.84;5069578;28;20489;-79
2022/10/19 02:36:22;;;;;;;9.23;4.30;;;;;;;2.00;100.00;93609.34;5069920;28;20130;-79
2022/10/19 02:38:49;;;;;;;7.15;4.38;;;;;;;1.98;100.00;93605.38;5069191;28;20492;-79
2022/10/19 02:41:20;;;;;;;9.25;4.78;;;;;;;1.98;100.00;93611.25;5069553;28;20480;-79
2022/10/19 02:43:50;;;;;;;9.30;6.13;;;;;;;1.95;100.00;93614.06;5069441;28;20044;-79
2022/10/19 02:46:23;;;;;;;9.73;4.80;;;;;;;1.93;100.00;93613.44;5069207;28;20057;-79
2022/10/19 02:48:51;;;;;;;10.10;4.72;;;;;;;1.90;100.00;93610.41;5069342;28;20098;-79
2022/10/19 02:51:30;;;;;;;8.60;4.35;;;;;;;1.88;100.00;93602.94;5069695;28;20412;-80
2022/10/19 02:53:57;;;;;;;9.88;4.55;;;;;;;1.85;100.00;93613.38;5069065;28;20162;-80
2022/10/19 02:56:24;;;;;;;8.15;4.72;;;;;;;1.80;100.00;93606.19;5069448;28;20044;-80
2022/10/19 02:58:51;;;;;;;9.55;4.75;;;;;;;1.80;100.00;93608.72;5069121;28;20086;-80
2022/10/19 03:01:18;;;;;;;9.07;4.70;;;;;;;1.27;100.00;93529.31;5069148;28;20052;-80
2022/10/19 03:03:44;;;;;;;8.38;5.00;;;;;;;1.70;100.00;93603.75;5069115;28;20476;-79
2022/10/19 03:06:11;;;;;;;9.98;5.72;;;;;;;1.71;100.00;93609.63;5069016;28;20110;-77
2022/10/19 03:08:39;;;;;;;10.85;5.95;;;;;;;1.72;100.00;93609.44;5069042;28;20036;-77
2022/10/19 03:11:06;;;;;;;10.68;6.38;;;;;;;1.72;100.00;93601.84;5069443;28;20185;-81
2022/10/19 03:13:33;;;;;;;8.75;5.40;;;;;;;1.71;100.00;93607.09;5068455;28;20454;-77
2022/10/19 03:16:07;;;;;;;8.77;5.50;;;;;;;1.75;100.00;93603.31;5068977;28;20057;-76
2022/10/19 03:18:34;;;;;;;9.18;5.80;;;;;;;1.72;100.00;93599.31;5068766;28;20078;-76
2022/10/19 03:21:06;;;;;;;8.20;5.28;;;;;;;1.55;100.00;93590.00;5068972;28;20502;-76
2022/10/19 03:23:33;;;;;;;9.63;5.93;;;;;;;1.57;100.00;93603.31;5068440;28;20041;-77
2022/10/19 03:26:02;;;;;;;8.80;5.85;;;;;;;1.56;100.00;93606.78;5068796;28;20056;-77
2022/10/19 03:28:29;;;;;;;9.95;5.70;;;;;;;1.55;100.00;93606.00;5068957;28;20098;-77
2022/10/19 03:30:55;;;;;;;11.15;6.47;;;;;;;1.56;100.00;93604.25;5048628;28;20099;-77
2022/10/19 03:33:22;;;;;;;8.02;5.28;;;;;;;1.50;100.00;93587.91;5048636;28;20045;-77
2022/10/19 03:35:49;;;;;;;9.02;6.07;;;;;;;1.59;100.00;93603.97;5048721;28;20485;-77
2022/10/19 03:38:16;;;;;;;8.93;5.22;;;;;;;1.63;100.00;93600.22;5065783;28;20041;-77
2022/10/19 03:40:43;;;;;;;8.20;5.20;;;;;;;1.66;100.00;93597.38;5068229;28;20091;-76
2022/10/19 03:43:11;;;;;;;7.88;5.47;;;;;;;1.62;100.00;93595.28;5068355;28;20049;-76
2022/10/19 03:45:38;;;;;;;8.65;4.85;;;;;;;1.61;100.00;93597.00;5068251;28;20094;-76
2022/10/19 03:48:05;;;;;;;8.50;4.72;;;;;;;1.62;100.00;93602.88;5068420;28;20048;-76
2022/10/19 03:50:31;;;;;;;8.15;4.70;;;;;;;1.59;100.00;93598.91;5068244;28;20545;-76
2022/10/19 03:52:58;;;;;;;7.57;4.60;;;;;;;1.62;100.00;93592.75;5068638;28;20048;-76
2022/10/19 03:55:25;;;;;;;7.30;4.35;;;;;;;1.58;100.00;93594.78;5068509;28;20443;-76
2022/10/19 03:57:52;;;;;;;7.88;4.53;;;;;;;1.52;100.00;93590.31;5068175;28;20094;-76
2022/10/19 04:00:20;;;;;;;8.43;4.32;;;;;;;1.43;100.00;93584.38;5068172;28;20106;-79
2022/10/19 04:02:47;;;;;;;10.02;6.00;;;;;;;1.36;100.00;93594.25;5068801;28;20104;-79
2022/10/19 04:05:13;;;;;;;10.55;6.57;;;;;;;1.40;100.00;93600.63;5068641;28;20497;-78
2022/10/19 04:07:40;;;;;;;10.95;6.90;;;;;;;1.38;100.00;93599.19;5068953;28;20169;-78
2022/10/19 04:10:08;;;;;;;9.70;6.03;;;;;;;1.32;100.00;93598.81;5069014;28;20062;-78
2022/10/19 04:12:34;;;;;;;10.18;5.78;;;;;;;1.31;100.00;93596.44;5068866;28;20052;-77
2022/10/19 04:15:01;;;;;;;9.60;5.97;;;;;;;1.31;100.00;93591.38;5069380;28;20427;-79
2022/10/19 04:17:29;;;;;;;10.32;6.18;;;;;;;1.33;100.00;93594.53;5068548;28;20044;-79
2022/10/19 04:19:56;;;;;;;13.65;7.20;;;;;;;1.26;100.00;93591.81;5068615;28;20127;-78
2022/10/19 04:22:23;;;;;;;16.02;7.65;;;;;;;1.19;100.00;93581.44;5068675;28;20045;-78
2022/10/19 04:24:49;;;;;;;12.30;7.90;;;;;;;1.22;100.00;93589.69;5070715;28;20044;-78
2022/10/19 04:27:16;;;;;;;14.75;7.70;;;;;;;1.24;100.00;93591.13;5072694;28;20053;-79
2022/10/19 04:29:43;;;;;;;13.80;8.10;;;;;;;1.18;100.00;93579.84;5072283;28;20098;-79
2022/10/19 04:32:09;;;;;;;14.07;8.00;;;;;;;1.25;100.00;93582.59;5072527;28;20110;-78
2022/10/19 04:34:37;;;;;;;15.07;8.95;;;;;;;1.26;100.00;93584.22;5072574;28;20389;-79
2022/10/19 04:37:04;;;;;;;12.10;7.72;;;;;;;1.16;100.00;93578.41;5072268;28;20462;-78
2022/10/19 04:39:31;;;;;;;11.32;6.57;;;;;;;1.11;100.00;93573.75;5071977;28;20602;-77
2022/10/19 04:41:58;;;;;;;9.85;6.10;;;;;;;1.07;100.00;93577.53;5072211;28;20094;-78
2022/10/19 04:44:24;;;;;;;13.35;6.97;;;;;;;1.04;100.00;93576.09;5072077;28;20041;-78
2022/10/19 04:46:51;;;;;;;8.98;6.20;;;;;;;0.90;100.00;93567.22;5072249;28;20044;-79
2022/10/19 04:49:18;;;;;;;11.38;6.70;;;;;;;1.01;100.00;93580.59;5071842;28;20048;-79
2022/10/19 04:51:46;;;;;;;9.18;6.30;;;;;;;1.01;100.00;93573.00;5071783;28;20048;-78
2022/10/19 04:54:13;;;;;;;13.73;6.68;;;;;;;1.02;100.00;93580.47;5071950;28;20488;-78
2022/10/19 04:56:40;;;;;;;10.68;6.75;;;;;;;1.01;100.00;93580.59;5071602;28;20040;-77
2022/10/19 04:59:06;;;;;;;14.85;7.95;;;;;;;0.98;100.00;93573.31;5071665;28;20052;-77
2022/10/19 05:01:34;;;;;;;23.65;13.15;;;;;;;0.91;100.00;93553.66;5071874;28;20553;-78
2022/10/19 05:04:02;;;;;;;16.85;10.82;;;;;;;1.05;100.00;93572.59;5071788;28;20060;-79
2022/10/19 05:06:30;;;;;;;15.55;10.65;;;;;;;1.11;100.00;93580.56;5071775;28;20056;-78
2022/10/19 05:08:59;;;;;;;15.15;9.25;;;;;;;1.15;100.00;93577.59;5071500;28;20558;-78
2022/10/19 05:11:26;;;;;;;18.52;9.48;;;;;;;1.17;100.00;93574.94;5071937;28;20044;-77
2022/10/19 05:13:53;;;;;;;14.13;9.40;;;;;;;1.19;100.00;93575.56;5071460;28;20044;-77
2022/10/19 05:16:22;;;;;;;16.25;8.88;;;;;;;1.20;100.00;93572.09;5071350;28;20098;-78
2022/10/19 05:18:51;;;;;;;17.13;9.73;;;;;;;1.22;100.00;93569.44;5071919;28;20052;-78
2022/10/19 05:21:19;;;;;;;16.40;9.07;;;;;;;1.20;100.00;93565.31;5072138;28;20137;-78
2022/10/19 05:23:46;;;;;;;14.85;8.75;;;;;;;1.18;100.00;93567.22;5072114;28;20048;-79
2022/10/19 05:26:16;;;;;;;17.23;7.68;;;;;;;1.27;100.00;93569.81;5071858;28;20063;-78
2022/10/19 05:28:43;;;;;;;30.95;15.68;;;;;;;1.28;100.00;93573.91;5071603;28;20049;-78
2022/10/19 05:31:14;;;;;;;54.65;26.13;;;;;;;1.26;100.00;93573.28;5056908;28;20514;-78
2022/10/19 05:33:42;;;;;;;32.88;17.20;;;;;;;1.29;100.00;93568.72;5071101;28;20519;-78
2022/10/19 05:36:17;;;;;;;27.85;14.15;;;;;;;1.32;100.00;93568.44;5070503;28;20488;-79
2022/10/19 05:38:44;;;;;;;23.15;12.60;;;;;;;1.37;100.00;93568.00;5071130;28;20052;-79
2022/10/19 05:41:11;;;;;;;21.45;11.20;;;;;;;1.43;100.00;93569.19;5070869;28;20052;-79
2022/10/19 05:43:40;;;;;;;18.95;10.50;;;;;;;1.49;100.00;93567.78;5070752;28;20048;-79
2022/10/19 05:46:09;;;;;;;17.58;9.30;;;;;;;1.54;100.00;93570.69;5070605;28;20048;-79
2022/10/19 05:48:36;;;;;;;20.08;9.18;;;;;;;1.74;100.00;93571.31;5071158;28;20408;-79
2022/10/19 05:51:04;;;;;;;15.18;8.73;;;;;;;1.85;100.00;93572.84;5070572;28;20554;-78
2022/10/19 05:53:31;;;;;;;15.90;9.43;;;;;;;1.80;100.00;93542.09;5070797;28;20047;-78
2022/10/19 05:55:58;;;;;;;18.13;10.98;;;;;;;1.99;100.00;93563.91;5070626;28;20048;-78
2022/10/19 05:58:25;;;;;;;48.97;29.25;;;;;;;1.99;100.00;93553.78;5070665;28;20103;-78
2022/10/19 06:00:54;;;;;;;49.92;27.85;;;;;;;2.25;100.00;93568.19;5070802;28;20386;-79
2022/10/19 06:03:21;;;;;;;38.53;22.73;;;;;;;2.27;100.00;93551.09;5070750;28;20044;-79
2022/10/19 06:05:48;;;;;;;30.45;17.40;;;;;;;2.46;100.00;93564.50;5070808;28;20055;-79
2022/10/19 06:08:15;;;;;;;25.70;15.32;;;;;;;2.60;100.00;93565.69;5070735;28;20109;-79
2022/10/19 06:10:42;;;;;;;21.05;12.85;;;;;;;2.76;100.00;93567.47;5070434;28;20147;-80
2022/10/19 06:13:08;;;;;;;87.45;43.05;;;;;;;2.83;100.00;93570.22;5070457;28;20044;-78
2022/10/19 06:15:38;;;;;;;64.57;32.97;;;;;;;3.03;100.00;93579.16;5070235;28;20505;-80
2022/10/19 06:18:07;;;;;;;58.92;29.60;;;;;;;3.19;100.00;93583.50;5070122;28;20044;-78
2022/10/19 06:20:34;;;;;;;37.45;21.40;;;;;;;3.35;100.00;93589.56;5070187;28;20045;-77
2022/10/19 06:23:04;;;;;;;27.15;15.95;;;;;;;3.23;100.00;93557.81;5069940;28;20052;-80
2022/10/19 06:25:31;;;;;;;26.50;14.93;;;;;;;3.42;100.00;93580.38;5070721;28;20052;-79
2022/10/19 06:27:58;;;;;;;22.45;11.52;;;;;;;3.59;100.00;93590.56;5070380;28;20044;-79
2022/10/19 06:30:25;;;;;;;32.33;15.00;;;;;;;3.65;100.00;93592.47;5070641;28;20083;-78
2022/10/19 06:32:52;;;;;;;29.10;16.65;;;;;;;3.84;99.49;93601.53;5065770;28;20052;-80
2022/10/19 06:35:21;;;;;;;27.38;16.75;;;;;;;3.91;100.00;93589.00;5059006;28;20125;-79
2022/10/19 06:37:48;;;;;;;28.48;16.95;;;;;;;4.01;99.12;93587.09;5069541;28;20098;-78
2022/10/19 06:40:15;;;;;;;28.45;18.55;;;;;;;4.24;100.00;93593.25;5070100;28;20784;-78
2022/10/19 06:42:41;;;;;;;24.25;14.73;;;;;;;4.37;98.44;93597.84;5069354;28;20051;-79
2022/10/19 06:45:10;;;;;;;27.05;14.70;;;;;;;4.48;97.76;93589.06;5069851;28;20101;-79
2022/10/19 06:47:37;;;;;;;21.17;12.05;;;;;;;4.67;97.68;93587.91;5069446;28;20570;-79
2022/10/19 06:50:05;;;;;;;16.98;10.50;;;;;;;4.72;97.31;93579.81;5069481;28;20045;-79
2022/10/19 06:52:42;;;;;;;21.95;12.10;;;;;;;4.88;96.99;93589.13;5069281;28;20094;-78
2022/10/19 06:55:09;;;;;;;24.35;12.50;;;;;;;5.03;95.50;93587.47;5069778;28;20654;-78
2022/10/19 06:57:36;;;;;;;22.05;12.43;;;;;;;4.99;95.99;93549.78;5070280;28;20108;-77
2022/10/19 07:00:03;;;;;;;23.27;13.13;;;;;;;5.33;95.67;93579.22;5069140;28;20041;-78
2022/10/19 07:02:30;;;;;;;23.58;12.75;;;;;;;5.57;94.63;93575.75;5069446;28;20049;-78
2022/10/19 07:04:57;;;;;;;20.88;11.93;;;;;;;5.81;93.11;93573.97;5069118;28;20452;-77
2022/10/19 07:07:23;;;;;;;29.50;16.20;;;;;;;5.93;90.58;93571.78;5068920;28;20052;-77
2022/10/19 07:09:52;;;;;;;35.60;19.40;;;;;;;5.97;90.04;93554.41;5069260;28;20048;-77
2022/10/19 07:12:19;;;;;;;28.08;15.55;;;;;;;6.02;87.70;93521.53;5069432;28;20045;-77
2022/10/19 07:14:46;;;;;;;24.90;15.13;;;;;;;6.51;85.56;93568.78;5069110;28;20105;-79
2022/10/19 07:17:13;;;;;;;18.67;10.50;;;;;;;6.55;83.88;93548.78;5069332;28;20098;-80
2022/10/19 07:19:40;;;;;;;18.45;10.70;;;;;;;6.81;79.31;93570.53;5069239;28;20500;-77
2022/10/19 07:22:07;;;;;;;20.33;11.32;;;;;;;6.93;82.83;93566.56;5068953;28;20041;-77
2022/10/19 07:24:33;;;;;;;17.63;9.13;;;;;;;7.14;79.24;93569.34;5069120;28;20048;-78
2022/10/19 07:27:01;;;;;;;17.63;9.93;;;;;;;7.16;81.67;93537.53;5069199;28;20055;-78
2022/10/19 07:29:28;;;;;;;15.93;8.50;;;;;;;7.43;81.58;93549.78;5069090;28;20102;-78
2022/10/19 07:31:55;;;;;;;14.50;7.32;;;;;;;7.74;77.02;93559.72;5068405;28;20044;-78
2022/10/19 07:34:22;;;;;;;16.65;9.68;;;;;;;7.95;74.08;93558.13;5066983;28;20562;-78
2022/10/19 07:36:48;;;;;;;16.42;7.90;;;;;;;8.13;74.85;93550.00;5068032;28;20557;-78
2022/10/19 07:39:16;;;;;;;18.77;9.10;;;;;;;8.32;73.49;93559.78;5069250;28;20049;-78
2022/10/19 07:41:44;;;;;;;28.33;13.18;;;;;;;8.54;72.80;93547.75;5068807;28;20136;-78
2022/10/19 07:44:15;;;;;;;23.88;11.73;;;;;;;8.69;70.24;93539.94;5067183;28;20386;-78
2022/10/19 07:46:42;;;;;;;30.88;14.23;;;;;;;8.74;69.04;93511.97;5066741;28;20064;-78
2022/10/19 07:49:11;;;;;;;33.38;15.77;;;;;;;9.09;68.61;93542.66;5068026;28;20090;-78
2022/10/19 07:51:38;;;;;;;36.47;15.38;;;;;;;9.20;66.98;93541.34;5055025;28;20090;-78
2022/10/19 07:54:05;;;;;;;33.08;13.80;;;;;;;9.39;67.09;93535.66;5068743;28;20402;-78
2022/10/19 07:56:32;;;;;;;33.65;14.55;;;;;;;9.56;68.02;93533.50;5069254;28;20040;-79
2022/10/19 07:59:00;;;;;;;35.25;13.90;;;;;;;9.73;67.44;93523.69;5069586;28;20045;-79
2022/10/19 08:01:30;;;;;;;34.22;14.38;;;;;;;9.91;65.14;93506.91;5072870;28;20088;-78
2022/10/19 08:03:58;;;;;;;34.72;12.82;;;;;;;10.14;67.24;93514.97;5072670;28;20037;-78
2022/10/19 08:06:25;;;;;;;31.88;12.80;;;;;;;10.41;67.40;93514.94;5072622;28;20044;-78
2022/10/19 08:08:53;;;;;;;32.65;12.40;;;;;;;10.61;65.42;93503.88;5072658;28;20049;-78
2022/10/19 08:11:22;;;;;;;34.85;11.38;;;;;;;10.89;63.96;93507.94;5072411;28;20059;-78
2022/10/19 08:13:49;;;;;;;35.45;12.82;;;;;;;10.95;62.15;93498.59;5072794;28;20117;-77
2022/10/19 08:16:29;;;;;;;32.97;11.40;;;;;;;11.00;60.99;93491.06;5072329;28;20493;-78
2022/10/19 08:18:58;;;;;;;36.70;12.40;;;;;;;11.28;60.56;93507.16;5072789;28;20040;-78
2022/10/19 08:21:25;;;;;;;30.15;10.50;;;;;;;11.49;57.56;93506.06;5072383;28;20451;-77
2022/10/19 08:23:51;;;;;;;33.35;9.73;;;;;;;11.74;60.12;93505.28;5072192;28;20098;-77
2022/10/19 08:26:18;;;;;;;31.33;10.02;;;;;;;12.05;61.46;93501.13;5072240;28;20443;-77
2022/10/19 08:28:45;;;;;;;42.60;10.57;;;;;;;12.31;58.66;93501.09;5071913;28;20569;-77
2022/10/19 08:31:14;;;;;;;27.77;9.40;;;;;;;12.48;56.06;93483.28;5072587;28;20431;-78
2022/10/19 08:33:42;;;;;;;33.40;9.63;;;;;;;12.81;57.00;93495.81;5072177;28;20052;-77
2022/10/19 08:36:12;;;;;;;20.08;7.63;;;;;;;13.06;55.15;93487.19;5072126;28;20036;-78
2022/10/19 08:38:40;;;;;;;12.32;4.97;;;;;;;13.28;52.08;93493.66;5071840;28;20098;-77
2022/10/19 08:41:19;;;;;;;18.48;5.57;;;;;;;13.48;52.32;93486.44;5072005;28;20076;-77
2022/10/19 08:43:59;;;;;;;15.63;5.53;;;;;;;13.78;55.65;93484.06;5071971;28;20174;-78
2022/10/19 08:46:35;;;;;;;23.55;8.90;;;;;;;13.98;54.46;93479.34;5071644;28;20032;-77
2022/10/19 08:49:03;;;;;;;20.13;6.72;;;;;;;14.24;54.44;93484.28;5071804;28;20052;-77
2022/10/19 08:51:35;;;;;;;17.33;6.53;;;;;;;14.42;53.98;93478.22;5071571;28;20533;-77
2022/10/19 08:54:11;;;;;;;20.92;6.72;;;;;;;14.55;53.31;93477.19;5068584;28;20542;-77
2022/10/19 08:56:44;;;;;;;17.20;6.32;;;;;;;14.68;52.89;93461.44;5069433;28;20057;-77
2022/10/19 08:59:18;;;;;;;18.88;6.60;;;;;;;14.98;52.91;93467.44;5057241;28;20099;-77
2022/10/19 09:01:52;;;;;;;22.65;6.68;;;;;;;14.98;49.58;93475.22;5060462;28;20114;-77
2022/10/19 09:04:24;;;;;;;17.15;6.15;;;;;;;15.15;50.38;93464.94;5068841;28;20504;-77
2022/10/19 09:07:13;;;;;;;14.60;4.80;;;;;;;15.20;47.40;93465.03;5071203;28;20107;-77
2022/10/19 09:09:44;;;;;;;18.65;5.88;;;;;;;15.47;49.98;93468.81;5071319;28;20497;-77
2022/10/19 09:12:16;;;;;;;20.35;6.03;;;;;;;15.59;49.54;93461.78;5070268;28;20105;-77
2022/10/19 09:14:55;;;;;;;14.00;5.53;;;;;;;15.50;46.30;93448.44;5071118;28;20101;-77
2022/10/19 09:17:24;;;;;;;13.43;5.82;;;;;;;15.74;48.21;93460.47;5071165;28;20044;-76
2022/10/19 09:19:52;;;;;;;15.52;5.53;;;;;;;15.93;49.46;93455.84;5071411;28;20048;-77
2022/10/19 09:22:23;;;;;;;14.38;4.68;;;;;;;16.09;48.83;93446.50;5070282;28;20094;-77
2022/10/19 09:24:52;;;;;;;17.83;5.72;;;;;;;16.39;49.19;93458.28;5059385;28;20167;-77
2022/10/19 09:27:22;;;;;;;14.95;5.22;;;;;;;16.58;48.65;93446.84;5071014;28;20041;-77
2022/10/19 09:29:54;;;;;;;16.88;5.03;;;;;;;16.87;48.13;93455.22;5071203;28;20177;-77
2022/10/19 09:32:24;;;;;;;9.02;4.15;;;;;;;16.84;45.57;93453.09;5070919;28;20131;-77
2022/10/19 09:34:55;;;;;;;13.75;4.18;;;;;;;16.91;44.40;93447.75;5071251;28;20044;-76
2022/10/19 09:37:22;;;;;;;16.52;4.32;;;;;;;16.71;43.70;93462.03;5071036;28;20049;-77
2022/10/19 09:39:49;;;;;;;13.52;4.63;;;;;;;16.89;44.94;93455.00;5071089;28;20065;-77
2022/10/19 09:42:22;;;;;;;11.13;3.80;;;;;;;16.96;44.16;93456.34;5070644;28;20049;-77
2022/10/19 09:44:50;;;;;;;11.18;2.70;;;;;;;16.85;40.94;93459.09;5070564;28;20040;-77
2022/10/19 09:47:31;;;;;;;4.05;1.88;;;;;;;16.65;38.96;93455.22;5070739;28;20044;-77
2022/10/19 09:50:17;;;;;;;4.45;2.30;;;;;;;16.88;39.01;93463.78;5070436;28;20105;-77
2022/10/19 09:52:45;;;;;;;3.88;1.90;;;;;;;17.04;40.53;93457.00;5070568;28;20055;-77
2022/10/19 09:55:26;;;;;;;8.82;3.80;;;;;;;17.23;39.11;93460.81;5070479;28;20090;-77
2022/10/19 09:58:03;;;;;;;8.95;3.70;;;;;;;17.09;40.93;93441.47;5070492;28;20053;-78
2022/10/19 10:00:37;;;;;;;5.80;2.28;;;;;;;17.02;37.45;93431.25;5070482;28;20129;-77
2022/10/19 10:03:06;;;;;;;6.40;3.10;;;;;;;17.32;39.20;93448.16;5070105;28;20425;-77
2022/10/19 10:05:37;;;;;;;9.00;3.30;;;;;;;17.47;41.67;93426.78;5070521;28;20105;-78
2022/10/19 10:08:14;;;;;;;8.60;2.83;;;;;;;17.68;41.83;93439.13;5062351;28;20436;-77
2022/10/19 10:10:44;;;;;;;10.65;4.78;;;;;;;17.78;40.69;93439.22;5070102;28;20044;-76
2022/10/19 10:13:17;;;;;;;7.70;3.33;;;;;;;17.82;42.08;93418.72;5070413;28;20040;-78
2022/10/19 10:15:48;;;;;;;2.90;1.65;;;;;;;17.88;36.29;93431.47;5070648;28;20063;-77
2022/10/19 10:18:17;;;;;;;3.25;1.98;;;;;;;17.81;36.88;93423.13;5059438;28;20045;-77
2022/10/19 10:21:02;;;;;;;3.47;1.85;;;;;;;17.86;35.88;93415.34;5064471;28;20049;-77
2022/10/19 10:23:32;;;;;;;3.78;2.00;;;;;;;17.63;34.22;93421.69;5059369;28;20049;-77
2022/10/19 10:26:00;;;;;;;4.40;1.60;;;;;;;17.66;35.84;93410.81;5064358;28;20443;-77
2022/10/19 10:28:28;;;;;;;5.57;2.42;;;;;;;17.48;34.74;93414.56;5069789;28;20036;-77
2022/10/19 10:31:01;;;;;;;6.88;3.38;;;;;;;17.25;34.76;93376.75;5065872;28;20109;-76
2022/10/19 10:33:30;;;;;;;3.65;1.65;;;;;;;17.50;34.62;93399.53;5068133;28;20059;-77
2022/10/19 10:36:07;;;;;;;4.28;2.08;;;;;;;17.70;34.44;93398.09;5069029;28;20090;-77
2022/10/19 10:38:39;;;;;;;5.80;2.53;;;;;;;17.58;34.35;93390.47;5067536;28;20112;-77
2022/10/19 10:41:14;;;;;;;3.58;2.00;;;;;;;17.55;33.17;93393.59;5068243;28;20087;-78
2022/10/19 10:43:52;;;;;;;4.75;1.90;;;;;;;17.75;33.68;93385.94;5069627;28;20041;-78
2022/10/19 10:46:24;;;;;;;4.80;2.25;;;;;;;17.72;34.28;93391.63;5060109;28;20094;-78
2022/10/19 10:48:58;;;;;;;5.03;1.95;;;;;;;17.80;33.33;93382.59;5069286;28;20056;-78
2022/10/19 10:51:33;;;;;;;5.00;2.13;;;;;;;17.84;31.27;93383.66;5059482;28;20460;-78
2022/10/19 10:54:10;;;;;;;3.83;1.92;;;;;;;17.89;30.88;93368.09;5067428;28;20455;-77
2022/10/19 10:56:39;;;;;;;3.90;1.98;;;;;;;17.99;30.27;93372.56;5069239;28;20055;-77
2022/10/19 10:59:14;;;;;;;4.43;2.35;;;;;;;17.90;30.14;93369.66;5068835;28;20512;-77
2022/10/19 11:01:45;;;;;;;3.30;1.90;;;;;;;17.80;30.91;93366.19;5069455;28;20052;-78
2022/10/19 11:04:19;;;;;;;2.55;1.23;;;;;;;17.76;29.94;93358.13;5069037;28;20431;-77
2022/10/19 11:06:54;;;;;;;3.75;1.52;;;;;;;17.90;31.02;93356.66;5069380;28;20045;-77
2022/10/19 11:09:29;;;;;;;3.45;1.30;;;;;;;18.05;31.82;93359.59;5068876;28;20556;-78
2022/10/19 11:12:00;;;;;;;2.63;1.30;;;;;;;18.13;30.85;93359.13;5069686;28;20048;-77
2022/10/19 11:14:32;;;;;;;4.25;1.85;;;;;;;18.27;31.52;93343.84;5069292;28;20052;-77
2022/10/19 11:17:04;;;;;;;3.25;1.90;;;;;;;18.47;32.58;93345.75;5069385;28;20044;-78
2022/10/19 11:19:35;;;;;;;4.47;1.88;;;;;;;18.54;30.35;93346.31;5069383;28;20078;-77
2022/10/19 11:22:13;;;;;;;4.50;2.05;;;;;;;18.51;30.14;93335.63;5069007;28;20835;-77
2022/10/19 11:24:52;;;;;;;4.47;1.70;;;;;;;18.47;29.38;93334.56;5069303;28;20459;-77
2022/10/19 11:27:31;;;;;;;5.95;3.17;;;;;;;18.44;30.91;93338.47;5068711;28;20455;-77
2022/10/19 11:30:10;;;;;;;4.38;2.28;;;;;;;18.49;31.92;93340.28;5068510;28;20056;-77
2022/10/19 11:32:50;;;;;;;4.80;2.55;;;;;;;18.50;31.30;93328.84;5068864;28;20496;-77
2022/10/19 11:35:31;;;;;;;4.47;2.00;;;;;;;18.68;30.76;93330.19;5068184;28;20505;-76
2022/10/19 11:38:14;;;;;;;5.53;2.42;;;;;;;18.62;30.41;93324.22;5069120;28;20040;-77
2022/10/19 11:40:50;;;;;;;3.53;1.50;;;;;;;18.35;30.23;93330.38;5069072;28;20114;-77